createdAt,value
2023-03-31T00:00:24.059Z,66.76
2023-03-31T00:03:46.659Z,66.77
2023-03-31T00:06:50.938Z,66.79
2023-03-31T00:10:07.096Z,66.81
2023-03-31T00:13:20.033Z,66.89
2023-03-31T00:16:23.754Z,66.67
2023-03-31T00:19:29.099Z,66.82
2023-03-31T00:22:32.133Z,66.87
2023-03-31T00:25:35.454Z,66.83
2023-03-31T00:28:38.495Z,66.75
2023-03-31T00:31:42.101Z,66.82
2023-03-31T00:34:46.298Z,66.71
2023-03-31T00:37:49.349Z,66.74
2023-03-31T00:40:53.932Z,66.69
2023-03-31T00:44:27.770Z,66.65
2023-03-31T00:47:31.127Z,66.54
2023-03-31T00:50:41.318Z,66.65
2023-03-31T00:53:51.950Z,66.57
2023-03-31T00:56:58.723Z,66.57
2023-03-31T01:00:14.669Z,66.68
2023-03-31T01:03:18.595Z,66.72
2023-03-31T01:06:23.756Z,66.69
2023-03-31T01:09:34.874Z,66.67
2023-03-31T01:12:41.259Z,66.73
2023-03-31T01:15:44.655Z,66.64
2023-03-31T01:18:50.178Z,66.61
2023-03-31T01:22:10.583Z,66.68
2023-03-31T01:26:07.932Z,66.65
2023-03-31T01:29:20.141Z,66.41
2023-03-31T01:32:44.232Z,66.45
2023-03-31T01:36:21.639Z,66.39
2023-03-31T01:39:46.210Z,66.43
2023-03-31T01:43:14.985Z,66.49
2023-03-31T01:46:29.115Z,66.37
2023-03-31T01:49:52.197Z,66.33
2023-03-31T01:53:11.280Z,66.37
2023-03-31T01:56:21.622Z,66.52
2023-03-31T01:59:38.019Z,66.35
2023-03-31T02:02:41.197Z,66.42
2023-03-31T02:06:11.142Z,66.34
2023-03-31T02:09:19.687Z,66.25
2023-03-31T02:12:27.746Z,66.19
2023-03-31T02:15:36.506Z,66.25
2023-03-31T02:18:41.852Z,66.22
2023-03-31T02:21:50.103Z,66.31
2023-03-31T02:24:54.912Z,66.18
2023-03-31T02:28:07.809Z,66.21
2023-03-31T02:31:36.737Z,66.13
2023-03-31T02:34:43.003Z,66.13
2023-03-31T02:37:46.803Z,66.10
2023-03-31T02:40:50.088Z,66.06
2023-03-31T02:43:53.299Z,66.07
2023-03-31T02:46:58.010Z,65.96
2023-03-31T02:50:03.570Z,65.93
2023-03-31T02:53:59.820Z,66.03
2023-03-31T02:57:15.496Z,65.88
2023-03-31T03:00:40.640Z,65.83
2023-03-31T03:04:11.128Z,65.83
2023-03-31T03:07:25.016Z,65.83
2023-03-31T03:10:41.635Z,65.80
2023-03-31T03:13:52.874Z,65.84
2023-03-31T03:17:12.007Z,65.69
2023-03-31T03:20:16.313Z,65.68
2023-03-31T03:23:19.466Z,65.70
2023-03-31T03:26:24.482Z,65.71
2023-03-31T03:29:28.761Z,65.59
2023-03-31T03:32:33.820Z,65.53
2023-03-31T03:35:37.062Z,65.55
2023-03-31T03:38:40.245Z,65.50
2023-03-31T03:41:43.302Z,65.35
2023-03-31T03:44:46.379Z,65.31
2023-03-31T03:47:49.523Z,65.37
2023-03-31T03:50:54.286Z,65.25
2023-03-31T03:53:57.504Z,65.24
2023-03-31T03:57:00.765Z,65.19
2023-03-31T04:00:10.067Z,65.17
2023-03-31T04:03:15.270Z,65.09
2023-03-31T04:06:18.605Z,65.05
2023-03-31T04:09:21.741Z,65.05
2023-03-31T04:12:24.820Z,65.01
2023-03-31T04:15:27.891Z,65.16
2023-03-31T04:18:31.035Z,65.06
2023-03-31T04:21:37.305Z,65.00
2023-03-31T04:24:40.449Z,64.94
2023-03-31T04:27:55.747Z,64.90
2023-03-31T04:30:58.971Z,64.93
2023-03-31T04:34:06.717Z,64.95
2023-03-31T04:37:10.721Z,64.96
2023-03-31T04:40:13.967Z,64.87
2023-03-31T04:43:19.172Z,64.93
2023-03-31T04:46:22.697Z,64.90
2023-03-31T04:49:36.127Z,64.89
2023-03-31T04:52:42.356Z,64.81
2023-03-31T04:55:45.545Z,64.72
2023-03-31T04:58:48.676Z,64.71
2023-03-31T05:01:51.776Z,64.77
2023-03-31T05:04:54.810Z,64.84
2023-03-31T05:07:57.912Z,64.79
2023-03-31T05:11:04.565Z,64.80
2023-03-31T05:14:07.692Z,64.81
2023-03-31T05:17:11.441Z,64.89
2023-03-31T05:20:14.754Z,64.96
2023-03-31T05:23:17.849Z,64.91
2023-03-31T05:26:23.068Z,65.02
2023-03-31T05:29:26.401Z,65.04
2023-03-31T05:32:29.686Z,64.87
2023-03-31T05:35:32.855Z,64.96
2023-03-31T05:38:36.585Z,65.07
2023-03-31T05:41:40.575Z,64.95
2023-03-31T05:44:43.613Z,64.92
2023-03-31T05:47:47.484Z,64.77
2023-03-31T05:50:50.961Z,64.80
2023-03-31T05:53:54.225Z,64.76
2023-03-31T05:56:57.355Z,64.81
2023-03-31T06:00:00.708Z,64.61
2023-03-31T06:03:03.950Z,64.57
2023-03-31T06:06:08.705Z,64.39
2023-03-31T06:09:15.110Z,64.31
2023-03-31T06:12:18.268Z,64.15
2023-03-31T06:15:21.460Z,64.06
2023-03-31T06:18:28.701Z,64.07
2023-03-31T06:21:31.916Z,63.94
2023-03-31T06:24:35.075Z,63.83
2023-03-31T06:27:38.204Z,63.60
2023-03-31T06:30:42.046Z,63.49
2023-03-31T06:33:46.599Z,63.53
2023-03-31T06:36:49.843Z,63.51
2023-03-31T06:39:53.571Z,63.21
2023-03-31T06:42:56.828Z,63.18
2023-03-31T06:46:00.222Z,63.18
2023-03-31T06:49:03.441Z,63.07
2023-03-31T06:52:06.783Z,63.07
2023-03-31T06:55:10.710Z,62.91
2023-03-31T06:58:14.111Z,62.89
2023-03-31T07:01:17.357Z,62.90
2023-03-31T07:04:20.838Z,62.80
2023-03-31T07:07:24.059Z,62.84
2023-03-31T07:10:29.851Z,62.84
2023-03-31T07:13:33.032Z,62.71
2023-03-31T07:16:39.025Z,62.74
2023-03-31T07:19:42.432Z,62.59
2023-03-31T07:22:47.640Z,62.47
2023-03-31T07:25:50.964Z,62.38
2023-03-31T07:28:56.762Z,62.30
2023-03-31T07:32:00.001Z,62.22
2023-03-31T07:35:03.511Z,62.18
2023-03-31T07:38:11.159Z,62.18
2023-03-31T07:41:16.839Z,62.06
2023-03-31T07:44:21.869Z,61.92
2023-03-31T07:47:25.894Z,61.89
2023-03-31T07:50:29.166Z,61.74
2023-03-31T07:53:34.458Z,61.47
2023-03-31T07:56:37.810Z,61.17
2023-03-31T07:59:41.265Z,61.23
2023-03-31T08:02:44.829Z,61.20
2023-03-31T08:05:52.516Z,60.78
2023-03-31T08:08:56.488Z,60.74
2023-03-31T08:11:59.646Z,60.48
2023-03-31T08:15:03.207Z,60.26
2023-03-31T08:18:07.003Z,60.21
2023-03-31T08:21:10.431Z,60.22
2023-03-31T08:24:13.686Z,60.11
2023-03-31T08:27:17.144Z,59.99
2023-03-31T08:30:20.674Z,60.01
2023-03-31T08:33:24.001Z,59.95
2023-03-31T08:36:27.649Z,59.92
2023-03-31T08:39:31.245Z,59.75
2023-03-31T08:42:47.642Z,59.68
2023-03-31T08:45:51.063Z,59.68
2023-03-31T08:48:59.615Z,59.59
2023-03-31T08:52:08.731Z,59.45
2023-03-31T08:55:26.010Z,59.39
2023-03-31T08:58:51.583Z,59.09
2023-03-31T09:02:01.227Z,58.78
2023-03-31T09:05:19.350Z,58.81
2023-03-31T09:08:43.127Z,58.41
2023-03-31T09:11:55.789Z,58.08
2023-03-31T09:15:09.083Z,57.92
2023-03-31T09:18:25.452Z,57.86
2023-03-31T09:21:34.363Z,57.50
2023-03-31T09:24:52.713Z,57.22
2023-03-31T09:28:00.053Z,56.99
2023-03-31T09:31:15.063Z,56.33
2023-03-31T09:34:31.891Z,56.24
2023-03-31T09:37:35.159Z,55.69
2023-03-31T09:40:38.542Z,55.35
2023-03-31T09:43:43.475Z,54.70
2023-03-31T09:46:46.933Z,54.16
2023-03-31T09:49:54.140Z,53.90
2023-03-31T09:53:06.142Z,53.29
2023-03-31T09:56:11.661Z,52.86
2023-03-31T09:59:19.018Z,52.63
2023-03-31T10:02:34.713Z,52.54
2023-03-31T10:05:41.576Z,52.34
2023-03-31T10:08:59.687Z,52.27
2023-03-31T10:12:07.307Z,52.01
2023-03-31T10:15:42.907Z,51.85
2023-03-31T10:18:46.125Z,51.54
2023-03-31T10:21:57.367Z,51.34
2023-03-31T10:25:17.045Z,51.32
2023-03-31T10:28:21.910Z,51.59
2023-03-31T10:31:36.101Z,51.58
2023-03-31T10:34:42.913Z,51.55
2023-03-31T10:37:48.688Z,51.73
2023-03-31T10:40:55.287Z,51.74
2023-03-31T10:44:00.831Z,51.87
2023-03-31T10:47:22.002Z,51.92
2023-03-31T10:50:31.294Z,51.79
2023-03-31T10:54:03.481Z,51.78
2023-03-31T10:57:07.514Z,51.86
2023-03-31T11:00:49.608Z,52.03
2023-03-31T11:04:07.831Z,52.15
2023-03-31T11:07:14.071Z,52.50
2023-03-31T11:10:41.638Z,52.64
2023-03-31T11:13:54.152Z,52.97
2023-03-31T11:17:19.949Z,53.13
2023-03-31T11:20:52.088Z,53.09
2023-03-31T11:24:15.258Z,53.05
2023-03-31T11:27:30.324Z,53.07
2023-03-31T11:30:58.306Z,53.08
2023-03-31T11:34:31.730Z,53.19
2023-03-31T11:37:53.548Z,53.19
2023-03-31T11:41:22.906Z,53.01
2023-03-31T11:44:31.080Z,52.98
2023-03-31T11:47:38.002Z,52.90
2023-03-31T11:50:47.028Z,52.85
2023-03-31T11:53:53.109Z,53.10
2023-03-31T11:56:56.854Z,52.99
2023-03-31T12:00:25.382Z,52.95
2023-03-31T12:03:46.856Z,53.01
2023-03-31T12:06:52.396Z,53.01
2023-03-31T12:10:07.754Z,53.20
2023-03-31T12:13:41.659Z,53.31
2023-03-31T12:17:12.536Z,53.30
2023-03-31T12:20:33.332Z,53.42
2023-03-31T12:23:41.881Z,53.60
2023-03-31T12:27:02.884Z,53.71
2023-03-31T12:30:14.991Z,53.63
2023-03-31T12:33:24.653Z,53.74
2023-03-31T12:36:45.608Z,53.71
2023-03-31T12:40:26.920Z,53.79
2023-03-31T12:43:44.845Z,53.85
2023-03-31T12:47:04.133Z,53.97
2023-03-31T12:50:12.967Z,53.87
2023-03-31T12:53:37.225Z,53.93
2023-03-31T12:57:04.625Z,53.86
2023-03-31T13:00:13.629Z,54.03
2023-03-31T13:03:39.099Z,53.91
2023-03-31T13:06:43.584Z,54.07
2023-03-31T13:09:53.054Z,54.29
2023-03-31T13:13:22.529Z,54.71
2023-03-31T13:16:28.443Z,54.73
2023-03-31T13:19:35.867Z,54.78
2023-03-31T13:22:45.952Z,54.72
2023-03-31T13:25:52.747Z,54.81
2023-03-31T13:29:09.582Z,54.62
2023-03-31T13:32:24.732Z,54.62
2023-03-31T13:35:31.008Z,54.47
2023-03-31T13:39:07.618Z,54.48
2023-03-31T13:42:37.662Z,54.54
2023-03-31T13:45:56.215Z,54.33
2023-03-31T13:49:35.388Z,53.97
2023-03-31T13:53:06.154Z,53.78
2023-03-31T13:56:27.096Z,53.67
2023-03-31T14:00:12.690Z,53.56
2023-03-31T14:03:44.262Z,53.50
2023-03-31T14:06:53.836Z,53.63
2023-03-31T14:09:59.649Z,53.77
2023-03-31T14:13:12.288Z,53.67
2023-03-31T14:16:18.263Z,53.83
2023-03-31T14:19:56.710Z,53.76
2023-03-31T14:23:18.325Z,53.97
2023-03-31T14:26:46.838Z,54.02
2023-03-31T14:30:23.530Z,54.17
2023-03-31T14:33:35.420Z,54.47
2023-03-31T14:37:00.343Z,54.96
2023-03-31T14:40:05.070Z,55.16
2023-03-31T14:43:18.831Z,55.38
2023-03-31T14:46:22.783Z,55.79
2023-03-31T14:49:28.979Z,56.16
2023-03-31T14:52:34.088Z,56.34
2023-03-31T14:55:54.354Z,56.77
2023-03-31T14:59:02.540Z,57.01
2023-03-31T15:02:06.631Z,57.45
2023-03-31T15:05:21.482Z,57.66
2023-03-31T15:08:25.953Z,57.96
2023-03-31T15:11:31.383Z,58.27
2023-03-31T15:14:46.833Z,58.34
2023-03-31T15:17:51.545Z,58.73
2023-03-31T15:20:54.846Z,58.87
2023-03-31T15:23:58.704Z,59.07
2023-03-31T15:27:08.581Z,59.17
2023-03-31T15:30:22.115Z,59.47
2023-03-31T15:33:36.687Z,59.59
2023-03-31T15:36:39.784Z,59.89
2023-03-31T15:39:48.442Z,60.02
2023-03-31T15:43:24.295Z,60.11
2023-03-31T15:46:38.692Z,60.34
2023-03-31T15:49:53.495Z,60.56
2023-03-31T15:52:58.497Z,60.67
2023-03-31T15:56:01.895Z,60.72
2023-03-31T15:59:06.973Z,60.97
2023-03-31T16:02:17.718Z,60.99
2023-03-31T16:05:54.407Z,61.11
2023-03-31T16:09:06.798Z,61.28
2023-03-31T16:12:30.718Z,61.37
2023-03-31T16:15:50.175Z,61.31
2023-03-31T16:19:06.357Z,61.31
2023-03-31T16:22:16.248Z,61.35
2023-03-31T16:25:23.155Z,61.45
2023-03-31T16:28:30.197Z,61.59
2023-03-31T16:31:39.646Z,61.67
2023-03-31T16:35:00.638Z,61.76
2023-03-31T16:38:08.196Z,61.72
2023-03-31T16:41:12.384Z,61.85
2023-03-31T16:44:15.554Z,61.97
2023-03-31T16:47:31.622Z,62.24
2023-03-31T16:50:38.400Z,62.70
2023-03-31T16:53:41.941Z,62.66
2023-03-31T16:56:50.172Z,62.55
2023-03-31T16:59:53.418Z,62.78
2023-03-31T17:02:57.978Z,62.99
2023-03-31T17:06:06.588Z,63.11
2023-03-31T17:09:09.979Z,63.25
2023-03-31T17:12:13.263Z,63.19
2023-03-31T17:15:16.937Z,62.78
2023-03-31T17:18:20.141Z,62.37
2023-03-31T17:21:23.769Z,62.45
2023-03-31T17:24:27.488Z,62.45
2023-03-31T17:27:30.981Z,62.38
2023-03-31T17:30:36.511Z,62.45
2023-03-31T17:33:40.281Z,62.36
2023-03-31T17:36:44.545Z,62.38
2023-03-31T17:39:48.241Z,62.21
2023-03-31T17:42:51.553Z,62.18
2023-03-31T17:46:02.226Z,62.21
2023-03-31T17:49:05.813Z,62.29
2023-03-31T17:52:09.073Z,62.36
2023-03-31T17:55:12.683Z,62.27
2023-03-31T17:58:16.158Z,62.20
2023-03-31T18:01:19.387Z,62.42
2023-03-31T18:04:22.772Z,62.31
2023-03-31T18:07:25.953Z,62.14
2023-03-31T18:10:29.531Z,62.27
2023-03-31T18:13:34.903Z,62.31
2023-03-31T18:16:38.154Z,62.21
2023-03-31T18:19:43.733Z,62.35
2023-03-31T18:22:47.791Z,62.32
2023-03-31T18:25:51.789Z,62.45
2023-03-31T18:28:55.534Z,62.53
2023-03-31T18:31:58.902Z,62.49
2023-03-31T18:35:02.565Z,62.27
2023-03-31T18:38:05.862Z,62.19
2023-03-31T18:41:10.003Z,62.12
2023-03-31T18:44:16.036Z,62.12
2023-03-31T18:47:20.993Z,62.23
2023-03-31T18:50:24.162Z,62.28
2023-03-31T18:53:27.970Z,62.28
2023-03-31T18:56:31.589Z,62.45
2023-03-31T18:59:34.715Z,62.65
2023-03-31T19:02:37.845Z,62.75
2023-03-31T19:05:41.195Z,62.64
2023-03-31T19:08:44.253Z,62.87
2023-03-31T19:11:47.524Z,62.88
2023-03-31T19:14:50.668Z,62.85
2023-03-31T19:17:54.161Z,62.92
2023-03-31T19:20:59.427Z,62.77
2023-03-31T19:24:02.835Z,62.99
2023-03-31T19:27:06.521Z,62.89
2023-03-31T19:30:18.189Z,62.93
2023-03-31T19:33:21.341Z,63.09
2023-03-31T19:36:24.478Z,63.10
2023-03-31T19:39:28.258Z,63.20
2023-03-31T19:42:33.396Z,63.17
2023-03-31T19:45:37.478Z,63.29
2023-03-31T19:48:41.234Z,63.43
2023-03-31T19:51:44.363Z,63.52
2023-03-31T19:54:48.048Z,63.56
2023-03-31T19:57:51.316Z,63.47
2023-03-31T20:00:56.049Z,63.61
2023-03-31T20:03:59.274Z,63.55
2023-03-31T20:07:03.354Z,63.63
2023-03-31T20:10:07.810Z,63.51
2023-03-31T20:13:11.394Z,63.54
2023-03-31T20:16:20.331Z,63.65
2023-03-31T20:19:23.508Z,63.84
2023-03-31T20:22:26.731Z,63.82
2023-03-31T20:25:30.139Z,63.95
2023-03-31T20:28:34.468Z,63.87
2023-03-31T20:31:40.068Z,63.82
2023-03-31T20:34:43.260Z,63.81
2023-03-31T20:37:46.589Z,63.87
2023-03-31T20:40:49.784Z,63.93
2023-03-31T20:43:53.853Z,63.93
2023-03-31T20:46:59.140Z,63.88
2023-03-31T20:50:03.007Z,64.06
2023-03-31T20:53:06.124Z,64.15
2023-03-31T20:56:17.799Z,64.18
2023-03-31T20:59:21.700Z,64.14
2023-03-31T21:02:25.546Z,64.07
2023-03-31T21:05:29.666Z,64.19
2023-03-31T21:08:33.393Z,64.21
2023-03-31T21:11:36.541Z,64.21
2023-03-31T21:14:39.897Z,64.19
2023-03-31T21:17:43.151Z,64.12
2023-03-31T21:21:11.216Z,64.08
2023-03-31T21:24:14.377Z,64.04
2023-03-31T21:27:17.725Z,64.10
2023-03-31T21:30:21.464Z,63.96
2023-03-31T21:33:25.331Z,64.02
2023-03-31T21:36:29.267Z,64.02
2023-03-31T21:39:32.290Z,63.79
2023-03-31T21:42:36.337Z,63.78
2023-03-31T21:45:39.869Z,63.72
2023-03-31T21:48:45.074Z,63.68
2023-03-31T21:51:49.046Z,63.62
2023-03-31T21:54:52.545Z,63.55
2023-03-31T21:57:55.648Z,63.54
2023-03-31T22:01:04.089Z,63.49
2023-03-31T22:04:08.552Z,63.36
2023-03-31T22:07:14.422Z,63.39
2023-03-31T22:10:17.552Z,63.34
2023-03-31T22:13:22.308Z,63.26
2023-03-31T22:16:25.616Z,63.16
2023-03-31T22:19:28.813Z,63.16
2023-03-31T22:22:31.997Z,63.00
2023-03-31T22:25:35.460Z,62.97
2023-03-31T22:28:38.642Z,62.79
2023-03-31T22:31:42.033Z,62.79
2023-03-31T22:34:46.040Z,62.71
2023-03-31T22:37:49.140Z,62.68
2023-03-31T22:40:52.188Z,62.61
2023-03-31T22:43:55.502Z,62.70
2023-03-31T22:46:58.614Z,62.53
2023-03-31T22:50:01.790Z,62.51
2023-03-31T22:53:05.042Z,62.55
2023-03-31T22:56:11.895Z,62.40
2023-03-31T22:59:15.953Z,62.39
2023-03-31T23:02:19.134Z,62.29
2023-03-31T23:05:24.292Z,62.22
2023-03-31T23:08:27.464Z,62.30
2023-03-31T23:11:30.612Z,62.22
2023-03-31T23:14:33.679Z,62.07
2023-03-31T23:17:37.055Z,62.03
2023-03-31T23:20:41.006Z,61.98
2023-03-31T23:23:44.035Z,62.03
2023-03-31T23:26:47.390Z,61.91
2023-03-31T23:29:50.579Z,62.00
2023-03-31T23:32:55.197Z,61.91
2023-03-31T23:36:00.990Z,61.96
2023-03-31T23:39:06.636Z,61.83
2023-03-31T23:42:12.590Z,61.85
2023-03-31T23:45:15.893Z,61.79
2023-03-31T23:48:19.345Z,61.78
2023-03-31T23:51:22.573Z,61.78
2023-03-31T23:54:25.916Z,61.64
2023-03-31T23:57:29.189Z,61.79
